createdAt,value
2023-05-20T00:00:44.384Z,18.22
2023-05-20T00:01:24.515Z,18.34
2023-05-20T00:02:04.376Z,18.36
2023-05-20T00:02:45.538Z,18.37
2023-05-20T00:03:26.495Z,18.28
2023-05-20T00:04:06.640Z,18.24
2023-05-20T00:04:48.500Z,18.28
2023-05-20T00:05:30.552Z,18.20
2023-05-20T00:06:11.409Z,18.36
2023-05-20T00:06:51.504Z,18.24
2023-05-20T00:07:31.406Z,18.13
2023-05-20T00:08:12.555Z,18.30
2023-05-20T00:08:52.361Z,18.27
2023-05-20T00:09:32.581Z,17.95
2023-05-20T00:10:13.436Z,17.85
2023-05-20T00:10:53.507Z,18.10
2023-05-20T00:11:34.417Z,18.10
2023-05-20T00:12:14.476Z,18.11
2023-05-20T00:12:54.410Z,18.22
2023-05-20T00:13:36.122Z,18.16
2023-05-20T00:14:16.374Z,18.12
2023-05-20T00:14:56.454Z,18.24
2023-05-20T00:15:37.622Z,18.17
2023-05-20T00:16:18.508Z,18.27
2023-05-20T00:16:59.487Z,18.19
2023-05-20T00:17:39.543Z,18.32
2023-05-20T00:18:20.394Z,18.37
2023-05-20T00:19:00.631Z,18.25
2023-05-20T00:19:40.387Z,18.22
2023-05-20T00:20:20.952Z,18.43
2023-05-20T00:21:02.358Z,18.39
2023-05-20T00:21:42.476Z,18.40
2023-05-20T00:22:22.425Z,18.40
2023-05-20T00:23:02.824Z,18.26
2023-05-20T00:23:42.401Z,18.26
2023-05-20T00:24:22.467Z,18.33
2023-05-20T00:25:03.428Z,18.20
2023-05-20T00:25:43.466Z,18.35
2023-05-20T00:26:23.390Z,18.23
2023-05-20T00:27:03.520Z,18.27
2023-05-20T00:27:43.449Z,18.25
2023-05-20T00:28:23.886Z,18.21
2023-05-20T00:29:05.378Z,18.18
2023-05-20T00:29:46.240Z,18.30
2023-05-20T00:30:27.381Z,18.28
2023-05-20T00:31:07.746Z,18.23
2023-05-20T00:31:48.449Z,18.11
2023-05-20T00:32:28.596Z,18.16
2023-05-20T00:33:09.431Z,18.18
2023-05-20T00:33:49.582Z,18.17
2023-05-20T00:34:29.391Z,18.16
2023-05-20T00:35:11.446Z,18.16
2023-05-20T00:35:52.363Z,17.96
2023-05-20T00:36:32.485Z,17.98
2023-05-20T00:37:13.377Z,18.07
2023-05-20T00:37:53.466Z,18.10
2023-05-20T00:38:33.395Z,18.21
2023-05-20T00:39:13.486Z,18.09
2023-05-20T00:39:53.357Z,18.13
2023-05-20T00:40:33.447Z,18.06
2023-05-20T00:41:14.387Z,18.07
2023-05-20T00:41:54.507Z,17.99
2023-05-20T00:42:35.428Z,18.05
2023-05-20T00:43:16.454Z,18.14
2023-05-20T00:44:01.406Z,18.10
2023-05-20T00:44:41.464Z,18.12
2023-05-20T00:45:22.362Z,18.22
2023-05-20T00:46:02.547Z,17.98
2023-05-20T00:46:43.358Z,17.97
2023-05-20T00:47:25.455Z,18.13
2023-05-20T00:48:08.488Z,18.16
2023-05-20T00:48:50.456Z,18.17
2023-05-20T00:49:31.415Z,18.23
2023-05-20T00:50:13.553Z,18.13
2023-05-20T00:50:55.386Z,18.10
2023-05-20T00:51:35.542Z,18.08
2023-05-20T00:52:15.377Z,18.13
2023-05-20T00:52:55.528Z,18.03
2023-05-20T00:53:36.345Z,18.22
2023-05-20T00:54:17.439Z,18.16
2023-05-20T00:54:58.374Z,18.17
2023-05-20T00:55:39.486Z,18.15
2023-05-20T00:56:21.344Z,18.17
2023-05-20T00:57:03.031Z,18.09
2023-05-20T00:57:44.354Z,18.05
2023-05-20T00:58:24.426Z,18.20
2023-05-20T00:59:05.354Z,18.13
2023-05-20T00:59:46.483Z,18.14
2023-05-20T01:00:26.360Z,18.07
2023-05-20T01:01:06.789Z,18.01
2023-05-20T01:01:48.510Z,17.98
2023-05-20T01:02:42.420Z,17.78
2023-05-20T01:03:36.429Z,17.95
2023-05-20T01:04:30.322Z,17.87
2023-05-20T01:05:25.319Z,17.98
2023-05-20T01:06:06.336Z,18.04
2023-05-20T01:06:46.429Z,18.13
2023-05-20T01:07:27.327Z,18.05
2023-05-20T01:08:07.887Z,17.93
2023-05-20T01:08:48.374Z,18.10
2023-05-20T01:09:28.444Z,18.05
2023-05-20T01:10:09.357Z,18.09
2023-05-20T01:10:53.345Z,17.96
2023-05-20T01:11:40.399Z,18.12
2023-05-20T01:12:38.351Z,17.96
2023-05-20T01:13:17.432Z,17.93
2023-05-20T01:14:13.318Z,17.92
2023-05-20T01:15:05.700Z,17.86
2023-05-20T01:15:53.422Z,17.96
2023-05-20T01:16:29.596Z,17.97
2023-05-20T01:17:19.333Z,17.93
2023-05-20T01:17:58.022Z,17.97
2023-05-20T01:18:47.367Z,17.81
2023-05-20T01:19:45.034Z,18.08
2023-05-20T01:20:32.395Z,17.95
2023-05-20T01:21:13.324Z,18.06
2023-05-20T01:22:08.332Z,18.02
2023-05-20T01:23:10.326Z,18.17
2023-05-20T01:24:04.327Z,18.15
2023-05-20T01:25:00.331Z,18.09
2023-05-20T01:25:54.305Z,18.05
2023-05-20T01:26:35.327Z,17.94
2023-05-20T01:27:20.516Z,17.98
2023-05-20T01:28:04.297Z,18.06
2023-05-20T01:28:45.431Z,17.88
2023-05-20T01:29:26.293Z,18.04
2023-05-20T01:30:06.577Z,18.13
2023-05-20T01:30:54.359Z,17.91
2023-05-20T01:31:47.412Z,18.10
2023-05-20T01:32:57.382Z,18.11
2023-05-20T01:33:51.280Z,18.13
2023-05-20T01:34:46.300Z,17.99
2023-05-20T01:35:40.309Z,17.98
2023-05-20T01:36:35.317Z,18.00
2023-05-20T01:37:16.310Z,17.95
2023-05-20T01:37:57.395Z,17.98
2023-05-20T01:38:38.317Z,17.85
2023-05-20T01:39:19.396Z,17.97
2023-05-20T01:40:01.301Z,17.98
2023-05-20T01:40:41.902Z,18.09
2023-05-20T01:41:23.303Z,18.06
2023-05-20T01:42:03.408Z,18.03
2023-05-20T01:42:44.337Z,18.05
2023-05-20T01:43:25.524Z,17.91
2023-05-20T01:44:06.309Z,17.94
2023-05-20T01:44:46.382Z,17.88
2023-05-20T01:45:27.308Z,17.66
2023-05-20T01:46:07.581Z,17.85
2023-05-20T01:46:47.296Z,17.96
2023-05-20T01:47:27.434Z,17.95
2023-05-20T01:48:09.441Z,17.92
2023-05-20T01:48:49.369Z,18.07
2023-05-20T01:49:30.302Z,18.11
2023-05-20T01:50:10.445Z,18.00
2023-05-20T01:50:51.323Z,18.09
2023-05-20T01:51:33.557Z,18.07
2023-05-20T01:52:13.272Z,18.13
2023-05-20T01:52:53.413Z,18.03
2023-05-20T01:53:34.322Z,18.03
2023-05-20T01:54:14.386Z,18.11
2023-05-20T01:54:57.296Z,18.09
2023-05-20T01:55:37.469Z,18.14
2023-05-20T01:56:17.277Z,18.13
2023-05-20T01:56:57.393Z,18.10
2023-05-20T01:57:38.308Z,18.16
2023-05-20T01:58:18.439Z,18.12
2023-05-20T01:58:58.294Z,18.12
2023-05-20T01:59:38.403Z,18.07
2023-05-20T02:00:19.265Z,18.27
2023-05-20T02:01:00.106Z,18.21
2023-05-20T02:01:41.311Z,18.18
2023-05-20T02:02:53.443Z,18.21
2023-05-20T02:03:33.286Z,18.28
2023-05-20T02:04:13.302Z,18.33
2023-05-20T02:04:48.232Z,18.35
2023-05-20T02:05:36.457Z,18.14
2023-05-20T02:06:10.452Z,18.31
2023-05-20T02:06:57.283Z,18.18
2023-05-20T02:07:31.451Z,18.04
2023-05-20T02:08:18.276Z,17.90
2023-05-20T02:08:52.381Z,17.95
2023-05-20T02:09:33.306Z,17.96
2023-05-20T02:10:14.407Z,17.92
2023-05-20T02:10:57.275Z,17.85
2023-05-20T02:11:37.384Z,17.90
2023-05-20T02:12:23.277Z,17.92
2023-05-20T02:13:03.336Z,17.77
2023-05-20T02:13:44.301Z,17.83
2023-05-20T02:14:24.409Z,17.78
2023-05-20T02:15:05.301Z,17.95
2023-05-20T02:15:48.391Z,17.98
2023-05-20T02:16:28.376Z,17.82
2023-05-20T02:17:10.364Z,18.01
2023-05-20T02:17:51.316Z,17.98
2023-05-20T02:18:32.653Z,18.13
2023-05-20T02:19:13.385Z,18.05
2023-05-20T02:19:54.378Z,18.12
2023-05-20T02:20:35.299Z,18.12
2023-05-20T02:21:15.383Z,18.13
2023-05-20T02:21:57.263Z,18.22
2023-05-20T02:22:37.364Z,18.12
2023-05-20T02:23:18.256Z,18.00
2023-05-20T02:23:58.386Z,18.10
2023-05-20T02:24:38.310Z,18.13
2023-05-20T02:25:18.362Z,18.01
2023-05-20T02:25:59.281Z,18.09
2023-05-20T02:26:40.396Z,18.12
2023-05-20T02:27:20.324Z,18.05
2023-05-20T02:28:00.689Z,18.09
2023-05-20T02:28:40.300Z,18.17
2023-05-20T02:29:22.144Z,18.13
2023-05-20T02:30:03.260Z,18.15
2023-05-20T02:30:47.032Z,18.08
2023-05-20T02:31:28.290Z,18.16
2023-05-20T02:32:09.009Z,18.14
2023-05-20T02:32:50.283Z,18.16
2023-05-20T02:33:30.572Z,18.24
2023-05-20T02:34:11.382Z,18.16
2023-05-20T02:34:51.373Z,18.21
2023-05-20T02:35:32.356Z,18.37
2023-05-20T02:36:12.417Z,18.36
2023-05-20T02:36:52.348Z,18.29
2023-05-20T02:37:32.405Z,18.23
2023-05-20T02:38:13.265Z,18.12
2023-05-20T02:38:56.641Z,18.27
2023-05-20T02:39:36.341Z,18.26
2023-05-20T02:40:17.619Z,18.23
2023-05-20T02:40:57.254Z,18.09
2023-05-20T02:41:37.364Z,18.16
2023-05-20T02:42:18.292Z,17.98
2023-05-20T02:42:58.365Z,17.93
2023-05-20T02:43:40.239Z,17.99
2023-05-20T02:44:20.496Z,18.03
2023-05-20T02:45:03.252Z,17.91
2023-05-20T02:45:43.620Z,17.91
2023-05-20T02:46:26.343Z,17.78
2023-05-20T02:47:06.357Z,17.96
2023-05-20T02:47:47.337Z,17.88
2023-05-20T02:48:27.341Z,17.75
2023-05-20T02:49:08.283Z,17.75
2023-05-20T02:49:48.378Z,17.74
2023-05-20T02:50:29.254Z,17.70
2023-05-20T02:51:09.349Z,17.63
2023-05-20T02:51:49.241Z,17.71
2023-05-20T02:52:29.342Z,17.81
2023-05-20T02:53:09.301Z,17.86
2023-05-20T02:53:49.341Z,17.91
2023-05-20T02:54:30.278Z,17.89
2023-05-20T02:55:11.366Z,17.96
2023-05-20T02:55:56.269Z,17.95
2023-05-20T02:56:36.479Z,18.07
2023-05-20T02:57:17.223Z,18.07
2023-05-20T02:57:57.309Z,18.06
2023-05-20T02:58:38.250Z,18.05
2023-05-20T02:59:18.350Z,18.04
2023-05-20T02:59:59.252Z,18.09
2023-05-20T03:00:41.083Z,18.10
2023-05-20T03:01:22.274Z,18.19
2023-05-20T03:02:03.285Z,18.08
2023-05-20T03:02:44.283Z,18.13
2023-05-20T03:03:24.320Z,18.16
2023-05-20T03:04:05.351Z,18.02
2023-05-20T03:04:47.357Z,18.10
2023-05-20T03:05:28.208Z,18.17
2023-05-20T03:06:08.312Z,18.17
2023-05-20T03:06:51.250Z,18.11
2023-05-20T03:07:31.689Z,18.19
2023-05-20T03:08:18.432Z,18.31
2023-05-20T03:08:58.679Z,18.26
2023-05-20T03:09:38.243Z,18.21
2023-05-20T03:10:18.319Z,18.36
2023-05-20T03:10:59.206Z,18.41
2023-05-20T03:11:39.333Z,18.23
2023-05-20T03:12:19.237Z,18.33
2023-05-20T03:12:59.344Z,18.39
2023-05-20T03:13:39.247Z,18.31
2023-05-20T03:14:19.317Z,18.25
2023-05-20T03:15:02.287Z,18.21
2023-05-20T03:15:42.409Z,18.31
2023-05-20T03:16:23.245Z,18.01
2023-05-20T03:17:03.319Z,17.96
2023-05-20T03:17:43.279Z,18.10
2023-05-20T03:18:23.326Z,18.06
2023-05-20T03:19:04.298Z,17.93
2023-05-20T03:19:44.365Z,17.97
2023-05-20T03:20:25.323Z,17.87
2023-05-20T03:21:05.320Z,17.70
2023-05-20T03:21:45.231Z,17.89
2023-05-20T03:22:25.312Z,17.83
2023-05-20T03:23:07.210Z,17.80
2023-05-20T03:23:48.606Z,17.91
2023-05-20T03:24:30.212Z,17.92
2023-05-20T03:25:12.477Z,17.70
2023-05-20T03:25:53.231Z,17.72
2023-05-20T03:26:37.522Z,17.88
2023-05-20T03:27:18.236Z,17.91
2023-05-20T03:28:01.073Z,17.87
2023-05-20T03:28:43.195Z,17.89
2023-05-20T03:29:23.310Z,17.93
2023-05-20T03:30:03.191Z,17.89
2023-05-20T03:30:43.426Z,17.95
2023-05-20T03:31:24.207Z,17.71
2023-05-20T03:32:04.317Z,17.76
2023-05-20T03:32:44.254Z,17.74
2023-05-20T03:33:26.291Z,17.63
2023-05-20T03:34:07.199Z,17.78
2023-05-20T03:34:47.490Z,17.62
2023-05-20T03:35:28.240Z,17.81
2023-05-20T03:36:08.288Z,17.90
2023-05-20T03:36:48.219Z,17.96
2023-05-20T03:37:28.281Z,18.01
2023-05-20T03:38:08.244Z,18.02
2023-05-20T03:38:48.483Z,17.98
2023-05-20T03:39:29.200Z,18.04
2023-05-20T03:40:10.470Z,18.09
2023-05-20T03:40:50.220Z,18.19
2023-05-20T03:41:30.454Z,18.18
2023-05-20T03:42:10.276Z,18.25
2023-05-20T03:42:51.968Z,18.22
2023-05-20T03:43:33.219Z,18.28
2023-05-20T03:44:27.185Z,17.98
2023-05-20T03:45:22.199Z,18.13
2023-05-20T03:46:16.312Z,18.06
2023-05-20T03:47:10.233Z,18.19
2023-05-20T03:48:04.295Z,18.15
2023-05-20T03:48:58.186Z,18.16
2023-05-20T03:49:52.176Z,18.26
2023-05-20T03:50:46.204Z,18.16
2023-05-20T03:51:40.192Z,18.17
2023-05-20T03:52:28.207Z,18.13
2023-05-20T03:53:02.333Z,18.12
2023-05-20T03:53:49.185Z,18.07
2023-05-20T03:54:23.337Z,18.13
2023-05-20T03:55:11.197Z,18.04
2023-05-20T03:55:45.464Z,18.19
2023-05-20T03:56:33.171Z,18.31
2023-05-20T03:57:07.284Z,18.19
2023-05-20T03:57:47.221Z,18.36
2023-05-20T03:58:29.230Z,18.39
2023-05-20T03:59:09.194Z,18.36
2023-05-20T03:59:49.322Z,18.38
2023-05-20T04:00:29.175Z,18.29
2023-05-20T04:01:09.422Z,18.26
2023-05-20T04:01:49.244Z,18.36
2023-05-20T04:02:29.410Z,18.35
2023-05-20T04:03:10.314Z,18.24
2023-05-20T04:03:51.308Z,18.27
2023-05-20T04:04:31.209Z,18.34
2023-05-20T04:05:12.297Z,18.24
2023-05-20T04:05:52.195Z,18.27
2023-05-20T04:06:32.963Z,18.39
2023-05-20T04:07:14.183Z,18.22
2023-05-20T04:07:54.290Z,18.41
2023-05-20T04:08:34.216Z,18.35
2023-05-20T04:09:14.342Z,18.43
2023-05-20T04:09:54.175Z,18.41
2023-05-20T04:10:34.301Z,18.41
2023-05-20T04:11:14.190Z,18.30
2023-05-20T04:11:54.342Z,18.28
2023-05-20T04:12:38.190Z,18.45
2023-05-20T04:13:18.358Z,18.28
2023-05-20T04:13:58.198Z,18.31
2023-05-20T04:14:38.953Z,18.11
2023-05-20T04:15:20.155Z,18.38
2023-05-20T04:16:01.996Z,18.35
2023-05-20T04:16:44.185Z,18.25
2023-05-20T04:17:24.288Z,18.34
2023-05-20T04:18:04.191Z,18.40
2023-05-20T04:18:46.015Z,18.21
2023-05-20T04:19:26.289Z,18.31
2023-05-20T04:20:07.636Z,18.34
2023-05-20T04:20:48.168Z,18.34
2023-05-20T04:21:28.298Z,18.27
2023-05-20T04:22:09.168Z,18.40
2023-05-20T04:22:49.258Z,18.48
2023-05-20T04:23:30.157Z,18.40
2023-05-20T04:24:10.261Z,18.38
2023-05-20T04:24:50.232Z,18.34
2023-05-20T04:25:30.303Z,18.45
2023-05-20T04:26:10.181Z,18.28
2023-05-20T04:26:50.256Z,18.24
2023-05-20T04:27:31.169Z,18.43
2023-05-20T04:28:14.197Z,18.39
2023-05-20T04:28:57.194Z,18.39
2023-05-20T04:29:37.236Z,18.50
2023-05-20T04:30:18.208Z,18.44
2023-05-20T04:31:08.308Z,18.41
2023-05-20T04:31:49.227Z,18.44
2023-05-20T04:32:29.345Z,18.53
2023-05-20T04:33:10.272Z,18.48
2023-05-20T04:33:50.475Z,18.40
2023-05-20T04:34:33.171Z,18.37
2023-05-20T04:35:14.010Z,18.33
2023-05-20T04:35:55.151Z,18.32
2023-05-20T04:36:38.215Z,18.37
2023-05-20T04:37:20.165Z,18.44
2023-05-20T04:38:01.070Z,18.24
2023-05-20T04:38:42.183Z,18.43
2023-05-20T04:39:22.823Z,18.20
2023-05-20T04:40:04.146Z,18.48
2023-05-20T04:40:44.223Z,18.37
2023-05-20T04:41:25.150Z,18.52
2023-05-20T04:42:05.306Z,18.46
2023-05-20T04:42:46.139Z,18.50
2023-05-20T04:43:26.375Z,18.43
2023-05-20T04:44:08.193Z,18.37
2023-05-20T04:45:02.159Z,18.46
2023-05-20T04:45:56.164Z,18.44
2023-05-20T04:46:43.239Z,18.35
2023-05-20T04:47:17.241Z,18.39
2023-05-20T04:48:04.281Z,18.50
2023-05-20T04:48:39.384Z,18.56
2023-05-20T04:49:26.139Z,18.54
2023-05-20T04:50:00.298Z,18.39
2023-05-20T04:50:48.156Z,18.59
2023-05-20T04:51:22.376Z,18.61
2023-05-20T04:52:03.205Z,18.58
2023-05-20T04:52:47.226Z,18.57
2023-05-20T04:53:30.147Z,18.45
2023-05-20T04:54:10.254Z,18.39
2023-05-20T04:54:50.121Z,18.54
2023-05-20T04:55:30.835Z,18.43
2023-05-20T04:56:12.179Z,18.46
2023-05-20T04:56:52.285Z,18.48
2023-05-20T04:57:32.166Z,18.52
2023-05-20T04:58:15.780Z,18.36
2023-05-20T04:58:56.185Z,18.41
2023-05-20T04:59:36.519Z,18.52
2023-05-20T05:00:19.150Z,18.50
2023-05-20T05:01:01.505Z,18.54
2023-05-20T05:01:43.180Z,18.48
2023-05-20T05:02:23.213Z,18.42
2023-05-20T05:03:03.219Z,18.45
2023-05-20T05:03:43.251Z,18.31
2023-05-20T05:04:24.148Z,18.24
2023-05-20T05:05:04.337Z,18.39
2023-05-20T05:05:45.142Z,18.33
2023-05-20T05:06:25.233Z,18.29
2023-05-20T05:07:05.137Z,18.40
2023-05-20T05:07:45.438Z,18.40
2023-05-20T05:08:26.174Z,18.27
2023-05-20T05:09:06.226Z,18.42
2023-05-20T05:09:47.148Z,18.27
2023-05-20T05:10:27.236Z,18.42
2023-05-20T05:11:07.132Z,18.37
2023-05-20T05:11:47.252Z,18.22
2023-05-20T05:12:28.153Z,18.28
2023-05-20T05:13:08.239Z,18.41
2023-05-20T05:13:48.168Z,18.46
2023-05-20T05:14:28.245Z,18.50
2023-05-20T05:15:08.141Z,18.21
2023-05-20T05:15:48.257Z,18.46
2023-05-20T05:16:29.239Z,18.41
2023-05-20T05:17:09.221Z,18.51
2023-05-20T05:17:50.154Z,18.35
2023-05-20T05:18:30.298Z,18.35
2023-05-20T05:19:10.200Z,18.30
2023-05-20T05:19:50.274Z,18.21
2023-05-20T05:20:31.114Z,18.28
2023-05-20T05:21:13.196Z,18.18
2023-05-20T05:21:55.123Z,18.19
2023-05-20T05:22:36.943Z,18.30
2023-05-20T05:23:18.126Z,18.23
2023-05-20T05:23:58.512Z,18.33
2023-05-20T05:24:39.150Z,18.13
2023-05-20T05:25:20.215Z,18.25
2023-05-20T05:26:01.120Z,18.20
2023-05-20T05:26:41.217Z,18.30
2023-05-20T05:27:21.108Z,18.35
2023-05-20T05:28:01.235Z,18.41
2023-05-20T05:28:42.100Z,18.33
2023-05-20T05:29:22.235Z,18.33
2023-05-20T05:30:02.151Z,18.43
2023-05-20T05:30:42.258Z,18.56
2023-05-20T05:31:22.130Z,18.44
2023-05-20T05:32:02.313Z,18.45
2023-05-20T05:32:44.266Z,18.44
2023-05-20T05:33:24.329Z,18.39
2023-05-20T05:34:04.141Z,18.26
2023-05-20T05:34:44.203Z,18.22
2023-05-20T05:35:24.165Z,18.36
2023-05-20T05:36:05.018Z,18.24
2023-05-20T05:36:47.131Z,18.12
2023-05-20T05:37:27.208Z,18.27
2023-05-20T05:38:07.110Z,18.27
2023-05-20T05:38:47.200Z,18.42
2023-05-20T05:39:27.121Z,18.29
2023-05-20T05:40:08.059Z,18.51
2023-05-20T05:40:49.125Z,18.48
2023-05-20T05:41:29.227Z,18.63
2023-05-20T05:42:10.154Z,18.41
2023-05-20T05:42:50.209Z,18.39
2023-05-20T05:43:30.100Z,18.37
2023-05-20T05:44:11.207Z,18.11
2023-05-20T05:44:52.166Z,18.35
2023-05-20T05:45:32.405Z,18.45
2023-05-20T05:46:13.146Z,18.43
2023-05-20T05:46:53.343Z,18.48
2023-05-20T05:47:39.125Z,18.35
2023-05-20T05:48:19.229Z,18.53
2023-05-20T05:49:00.163Z,18.54
2023-05-20T05:49:41.238Z,18.63
2023-05-20T05:50:21.138Z,18.51
2023-05-20T05:51:01.250Z,18.59
2023-05-20T05:51:41.259Z,18.51
2023-05-20T05:52:21.948Z,18.42
2023-05-20T05:53:03.092Z,18.64
2023-05-20T05:53:51.178Z,18.55
2023-05-20T05:54:32.106Z,18.54
2023-05-20T05:55:13.277Z,18.61
2023-05-20T05:55:54.107Z,18.58
2023-05-20T05:56:34.202Z,18.56
2023-05-20T05:57:16.110Z,18.57
2023-05-20T05:57:56.261Z,18.61
2023-05-20T05:58:36.112Z,18.46
2023-05-20T05:59:16.261Z,18.30
2023-05-20T05:59:56.085Z,18.45
2023-05-20T06:00:36.221Z,18.49
2023-05-20T06:01:17.195Z,18.49
2023-05-20T06:02:00.269Z,18.26
2023-05-20T06:02:43.220Z,18.15
2023-05-20T06:03:23.556Z,18.48
2023-05-20T06:04:04.189Z,18.26
2023-05-20T06:04:44.181Z,18.25
2023-05-20T06:05:26.319Z,18.40
2023-05-20T06:06:08.571Z,18.39
2023-05-20T06:06:50.095Z,18.40
2023-05-20T06:07:30.200Z,18.57
2023-05-20T06:08:11.133Z,18.53
2023-05-20T06:08:51.205Z,18.61
2023-05-20T06:09:32.073Z,18.71
2023-05-20T06:10:13.198Z,18.64
2023-05-20T06:10:57.070Z,18.67
2023-05-20T06:11:42.292Z,18.70
2023-05-20T06:12:24.060Z,18.72
2023-05-20T06:13:21.102Z,18.74
2023-05-20T06:14:18.170Z,18.63
2023-05-20T06:15:15.093Z,18.76
2023-05-20T06:16:11.124Z,18.66
2023-05-20T06:17:05.200Z,18.71
2023-05-20T06:17:59.109Z,18.76
2023-05-20T06:18:42.140Z,18.81
2023-05-20T06:19:22.263Z,18.83
2023-05-20T06:20:02.094Z,18.65
2023-05-20T06:20:43.170Z,18.68
2023-05-20T06:21:25.147Z,18.76
2023-05-20T06:22:11.298Z,18.77
2023-05-20T06:22:51.071Z,18.83
2023-05-20T06:23:33.937Z,18.69
2023-05-20T06:24:38.087Z,18.76
2023-05-20T06:25:32.293Z,18.87
2023-05-20T06:26:26.073Z,18.82
2023-05-20T06:27:20.092Z,18.69
2023-05-20T06:28:19.190Z,18.79
2023-05-20T06:29:15.196Z,18.84
2023-05-20T06:30:05.586Z,18.87
2023-05-20T06:30:39.228Z,18.87
2023-05-20T06:31:26.122Z,18.92
2023-05-20T06:32:00.226Z,18.78
2023-05-20T06:32:48.093Z,18.71
2023-05-20T06:33:22.200Z,18.81
2023-05-20T06:34:11.263Z,18.89
2023-05-20T06:34:47.173Z,18.88
2023-05-20T06:35:28.129Z,18.89
2023-05-20T06:36:08.265Z,18.99
2023-05-20T06:36:49.090Z,19.03
2023-05-20T06:37:29.252Z,18.99
2023-05-20T06:38:10.120Z,18.99
2023-05-20T06:38:50.130Z,18.92
2023-05-20T06:39:30.092Z,19.04
2023-05-20T06:40:14.230Z,19.03
2023-05-20T06:40:58.119Z,18.92
2023-05-20T06:41:38.206Z,18.79
2023-05-20T06:42:18.059Z,18.83
2023-05-20T06:42:58.175Z,18.91
2023-05-20T06:43:40.114Z,18.95
2023-05-20T06:44:20.191Z,18.96
2023-05-20T06:45:02.996Z,18.98
2023-05-20T06:45:43.224Z,18.82
2023-05-20T06:46:23.104Z,19.01
2023-05-20T06:47:03.323Z,19.14
2023-05-20T06:47:44.138Z,19.19
2023-05-20T06:48:24.202Z,18.98
2023-05-20T06:49:08.080Z,19.13
2023-05-20T06:49:52.167Z,18.95
2023-05-20T06:50:32.070Z,18.97
2023-05-20T06:51:15.183Z,18.92
2023-05-20T06:51:58.163Z,18.79
2023-05-20T06:52:38.132Z,18.93
2023-05-20T06:53:22.819Z,18.88
2023-05-20T06:54:03.180Z,18.86
2023-05-20T06:54:48.084Z,18.98
2023-05-20T06:55:28.163Z,19.08
2023-05-20T06:56:09.078Z,19.05
2023-05-20T06:56:49.154Z,19.05
2023-05-20T06:57:30.051Z,19.10
2023-05-20T06:58:10.119Z,19.15
2023-05-20T06:58:50.073Z,19.08
2023-05-20T06:59:30.136Z,19.12
2023-05-20T07:00:12.056Z,19.10
2023-05-20T07:00:53.294Z,19.06
2023-05-20T07:01:37.098Z,19.11
2023-05-20T07:02:18.153Z,19.09
2023-05-20T07:03:00.453Z,19.06
2023-05-20T07:03:41.265Z,19.02
2023-05-20T07:04:21.253Z,18.81
2023-05-20T07:05:11.751Z,18.78
2023-05-20T07:05:54.035Z,18.78
2023-05-20T07:06:35.298Z,18.80
2023-05-20T07:07:18.059Z,18.88
2023-05-20T07:08:05.270Z,19.02
2023-05-20T07:09:02.046Z,19.03
2023-05-20T07:09:57.037Z,19.02
2023-05-20T07:10:54.019Z,19.04
2023-05-20T07:11:41.181Z,18.79
2023-05-20T07:12:23.576Z,18.91
2023-05-20T07:13:04.166Z,19.02
2023-05-20T07:13:46.085Z,19.16
2023-05-20T07:14:28.132Z,19.06
2023-05-20T07:15:09.043Z,19.07
2023-05-20T07:16:01.072Z,19.04
2023-05-20T07:16:41.104Z,19.05
2023-05-20T07:17:21.176Z,18.96
2023-05-20T07:18:02.162Z,18.93
2023-05-20T07:18:42.184Z,18.97
2023-05-20T07:19:23.098Z,18.98
2023-05-20T07:20:04.320Z,19.06
2023-05-20T07:20:45.036Z,18.99
2023-05-20T07:21:25.090Z,18.85
2023-05-20T07:22:06.038Z,18.93
2023-05-20T07:22:46.369Z,18.94
2023-05-20T07:23:26.138Z,18.77
2023-05-20T07:24:06.378Z,18.90
2023-05-20T07:24:46.051Z,18.81
2023-05-20T07:25:26.215Z,18.83
2023-05-20T07:26:07.241Z,18.94
2023-05-20T07:26:47.238Z,18.94
2023-05-20T07:27:27.026Z,19.02
2023-05-20T07:28:07.324Z,18.99
2023-05-20T07:28:47.066Z,18.90
2023-05-20T07:29:29.374Z,18.96
2023-05-20T07:30:10.075Z,19.03
2023-05-20T07:30:50.533Z,18.99
2023-05-20T07:31:31.054Z,19.00
2023-05-20T07:32:12.698Z,18.97
2023-05-20T07:32:53.138Z,18.99
2023-05-20T07:33:33.178Z,19.02
2023-05-20T07:34:14.016Z,19.05
2023-05-20T07:34:54.187Z,19.08
2023-05-20T07:35:38.533Z,19.06
2023-05-20T07:36:22.809Z,19.13
2023-05-20T07:37:04.029Z,19.22
2023-05-20T07:37:44.100Z,19.26
2023-05-20T07:38:24.999Z,19.17
2023-05-20T07:39:12.340Z,19.24
2023-05-20T07:39:55.054Z,19.39
2023-05-20T07:40:36.870Z,19.37
2023-05-20T07:41:18.159Z,19.32
2023-05-20T07:41:58.109Z,19.35
2023-05-20T07:42:39.082Z,19.30
2023-05-20T07:43:20.171Z,19.37
2023-05-20T07:44:01.243Z,19.45
2023-05-20T07:44:41.108Z,19.50
2023-05-20T07:45:24.973Z,19.55
2023-05-20T07:46:05.174Z,19.54
2023-05-20T07:47:00.561Z,19.54
2023-05-20T07:47:45.404Z,19.47
2023-05-20T07:48:25.062Z,19.43
2023-05-20T07:49:07.575Z,19.53
2023-05-20T07:49:57.036Z,19.37
2023-05-20T07:50:37.093Z,19.42
2023-05-20T07:51:18.018Z,19.33
2023-05-20T07:52:06.012Z,19.39
2023-05-20T07:53:02.335Z,19.43
2023-05-20T07:53:56.034Z,19.49
2023-05-20T07:54:51.014Z,19.57
2023-05-20T07:55:47.992Z,19.59
2023-05-20T07:56:42.047Z,19.42
2023-05-20T07:57:29.022Z,19.59
2023-05-20T07:58:03.191Z,19.52
2023-05-20T07:58:50.029Z,19.37
2023-05-20T07:59:26.205Z,19.65
2023-05-20T08:00:14.999Z,19.66
2023-05-20T08:00:49.073Z,19.69
2023-05-20T08:01:37.001Z,19.67
2023-05-20T08:02:12.162Z,19.61
2023-05-20T08:02:54.305Z,19.58
2023-05-20T08:03:35.161Z,19.61
2023-05-20T08:04:16.020Z,19.47
2023-05-20T08:04:56.078Z,19.59
2023-05-20T08:05:36.156Z,19.68
2023-05-20T08:06:17.118Z,19.69
2023-05-20T08:06:57.993Z,19.57
2023-05-20T08:07:38.068Z,19.66
2023-05-20T08:08:17.996Z,19.63
2023-05-20T08:08:59.538Z,19.67
2023-05-20T08:09:41.016Z,19.73
2023-05-20T08:10:21.082Z,19.70
2023-05-20T08:11:02.003Z,19.80
2023-05-20T08:11:56.046Z,19.92
2023-05-20T08:12:49.977Z,19.84
2023-05-20T08:13:37.024Z,19.59
2023-05-20T08:14:11.241Z,19.70
2023-05-20T08:14:57.978Z,19.77
2023-05-20T08:15:32.183Z,19.77
2023-05-20T08:16:19.031Z,19.82
2023-05-20T08:16:54.957Z,19.69
2023-05-20T08:17:42.033Z,19.78
2023-05-20T08:18:16.265Z,19.67
2023-05-20T08:18:57.031Z,19.70
2023-05-20T08:19:37.063Z,19.85
2023-05-20T08:20:18.996Z,19.86
2023-05-20T08:21:00.157Z,19.85
2023-05-20T08:21:41.992Z,19.95
2023-05-20T08:22:22.132Z,20.00
2023-05-20T08:23:02.968Z,20.01
2023-05-20T08:23:44.166Z,20.08
2023-05-20T08:24:23.985Z,20.13
2023-05-20T08:25:04.161Z,20.15
2023-05-20T08:25:46.973Z,20.07
2023-05-20T08:26:27.218Z,20.24
2023-05-20T08:27:08.033Z,20.35
2023-05-20T08:27:48.115Z,20.26
2023-05-20T08:28:28.987Z,20.24
2023-05-20T08:29:09.625Z,20.17
2023-05-20T08:29:52.005Z,20.17
2023-05-20T08:30:32.153Z,20.19
2023-05-20T08:31:13.060Z,20.28
2023-05-20T08:31:53.085Z,20.23
2023-05-20T08:32:33.010Z,20.27
2023-05-20T08:33:13.122Z,20.15
2023-05-20T08:33:53.963Z,20.20
2023-05-20T08:34:34.058Z,20.26
2023-05-20T08:35:15.992Z,20.19
2023-05-20T08:35:59.074Z,20.29
2023-05-20T08:36:39.977Z,20.22
2023-05-20T08:37:30.131Z,20.14
2023-05-20T08:38:09.980Z,20.38
2023-05-20T08:38:50.062Z,20.42
2023-05-20T08:39:30.972Z,20.36
2023-05-20T08:40:12.343Z,20.40
2023-05-20T08:40:52.976Z,20.36
2023-05-20T08:41:33.028Z,20.39
2023-05-20T08:42:14.945Z,20.31
2023-05-20T08:42:58.881Z,20.43
2023-05-20T08:43:39.945Z,20.48
2023-05-20T08:44:20.034Z,20.35
2023-05-20T08:45:00.957Z,20.39
2023-05-20T08:45:44.047Z,20.37
2023-05-20T08:46:25.992Z,20.41
2023-05-20T08:47:01.390Z,20.44
2023-05-20T08:47:48.016Z,20.34
2023-05-20T08:48:26.634Z,20.44
2023-05-20T08:49:14.935Z,20.48
2023-05-20T08:49:49.640Z,20.31
2023-05-20T08:50:36.946Z,20.42
2023-05-20T08:51:11.307Z,20.28
2023-05-20T08:51:52.973Z,20.32
2023-05-20T08:52:29.069Z,20.27
2023-05-20T08:53:02.906Z,20.26
2023-05-20T08:53:43.919Z,20.40
2023-05-20T08:54:19.130Z,20.44
2023-05-20T08:54:53.948Z,20.33
2023-05-20T08:55:49.960Z,20.39
2023-05-20T08:56:30.029Z,20.34
2023-05-20T08:57:12.023Z,20.36
2023-05-20T08:57:52.042Z,20.47
2023-05-20T08:58:31.931Z,20.39
2023-05-20T08:59:13.083Z,20.62
2023-05-20T08:59:58.955Z,20.64
2023-05-20T09:00:39.066Z,20.66
2023-05-20T09:01:19.945Z,20.74
2023-05-20T09:02:00.066Z,20.69